Latest Weather Observations for Barimunya

IDW60801

Issued at 8:32 am WST Thursday 28 July 2016 (issued every 30 minutes, with the page automatically refreshed every 10 minutes)

About weather observations | Map of weather stations | Latest weather observations for WA | Other Formats
Station Details ID: 505053 Name: BARIMUNYA Lat: -22.67 Lon: 119.16 Height: 629.17 m
Data from the previous 72 hours. | See also: Recent months for locations in Western Australia
Date/Time
WST
Temp
°C
App
Temp
°C
Dew
Point
°C
Rel
Hum
%
Delta-T
°C
Wind Press
QNH
hPa
Press
MSL
hPa
Rain since
9am
mm
Dir  Spd
km/h
Gust
km/h
Spd
kts
Gust
kts
28/08:30am 17.4 12.4 -3.9 23 8.8 ESE 13 19 7 10 1025.2 1024.1 0.0
28/08:00am 16.6 11.7 -3.5 25 8.3 ESE 13 19 7 10 1024.9 1023.8 0.0
28/07:30am 15.7 11.1 -3.7 26 7.9 E 11 17 6 9 1024.7 1023.6 0.0
28/07:00am 14.7 10.5 -4.1 27 7.5 E 9 15 5 8 1024.4 1023.2 0.0
28/06:30am 14.8 9.1 -4.0 27 7.5 ESE 17 20 9 11 1024.2 1023.0 0.0
28/06:00am 14.9 9.6 -3.9 27 7.5 ESE 15 19 8 10 1023.4 1022.3 0.0
28/05:30am 15.2 10.3 -3.6 27 7.6 ESE 13 19 7 10 1023.3 1022.2 0.0
28/05:00am 15.4 10.8 -4.0 26 7.8 ESE 11 15 6 8 1023.2 1022.1 0.0
28/04:30am 15.7 11.5 -4.2 25 8.0 ESE 9 19 5 10 1023.1 1021.9 0.0
28/04:00am 16.0 10.7 -4.0 25 8.1 ESE 15 24 8 13 1023.0 1021.8 0.0
28/03:30am 16.1 11.1 -3.9 25 8.1 ESE 13 22 7 12 1023.0 1021.8 0.0
28/03:00am 16.4 11.1 -3.7 25 8.2 ESE 15 24 8 13 1023.2 1022.1 0.0
28/02:30am 16.6 10.9 -3.5 25 8.3 ESE 17 22 9 12 1023.0 1021.8 0.0
28/02:00am 17.1 11.0 -3.6 24 8.5 ESE 19 26 10 14 1022.8 1021.6 0.0
28/01:30am 17.5 11.2 -3.8 23 8.8 ESE 20 28 11 15 1023.2 1022.1 0.0
28/01:00am 17.8 11.5 -4.2 22 9.0 ESE 20 32 11 17 1023.1 1021.9 0.0
28/12:30am 17.8 11.6 -3.0 24 8.8 ESE 20 26 11 14 1023.3 1022.2 0.0
28/12:00am 17.5 12.2 -0.7 29 8.0 ESE 17 22 9 12 1023.2 1022.1 0.0
 
Date/Time
WST
Temp
°C
App
Temp
°C
Dew
Point
°C
Rel
Hum
%
Delta-T
°C
Wind Press
QNH
hPa
Press
MSL
hPa
Rain since
9am
mm
Dir  Spd
km/h
Gust
km/h
Spd
kts
Gust
kts
27/11:30pm 18.0 12.4 -0.3 29 8.2 ESE 19 24 10 13 1023.6 1022.5 0.0
27/11:00pm 18.2 12.6 -0.1 29 8.2 ESE 19 28 10 15 1023.6 1022.5 0.0
27/10:30pm 18.3 12.7 0.0 29 8.2 E 19 28 10 15 1023.1 1021.9 0.0
27/10:00pm 18.5 12.8 0.6 30 8.1 ESE 20 28 11 15 1023.2 1022.1 0.0
27/09:30pm 18.3 13.2 0.9 31 8.0 ESE 17 20 9 11 1023.3 1022.2 0.0
27/09:00pm 18.4 13.8 1.4 32 7.9 ESE 15 20 8 11 1023.5 1022.4 0.0
27/08:30pm 18.5 13.9 1.5 32 7.9 ESE 15 17 8 9 1023.2 1022.1 0.0
27/08:00pm 17.9 14.2 2.2 35 7.3 ESE 11 15 6 8 1023.0 1021.8 0.0
27/07:30pm 18.6 15.3 2.4 34 7.7 ESE 9 13 5 7 1023.0 1021.8 0.0
27/07:00pm 19.1 15.0 2.5 33 7.9 ESE 13 17 7 9 1022.3 1021.2 0.0
27/06:30pm 19.4 15.4 2.7 33 8.0 ESE 13 15 7 8 1022.1 1021.0 0.0
27/06:00pm 20.5 16.9 2.8 31 8.6 ESE 11 15 6 8 1021.9 1020.8 0.0
27/05:30pm 22.0 16.8 2.2 27 9.6 ESE 19 24 10 13 1021.4 1020.2 0.0
27/05:00pm 22.9 18.4 2.4 26 10.0 ESE 15 20 8 11 1021.3 1020.1 0.0
27/04:30pm 23.1 17.6 2.0 25 10.3 E 20 28 11 15 1021.1 1019.9 0.0
27/04:00pm 23.6 18.7 1.9 24 10.5 ESE 17 24 9 13 1021.0 1019.8 0.0
27/03:30pm 23.8 18.9 2.0 24 10.7 E 17 26 9 14 1020.9 1019.7 0.0
27/03:00pm 23.5 18.2 1.8 24 10.5 E 19 26 10 14 1020.9 1019.7 0.0
27/02:30pm 23.4 17.9 1.7 24 10.5 E 20 30 11 16 1020.9 1019.7 0.0
27/02:00pm 23.0 17.4 1.4 24 10.4 E 20 32 11 17 1021.0 1019.8 0.0
27/01:30pm 22.5 16.9 0.9 24 10.2 E 20 30 11 16 1021.6 1020.4 0.0
27/01:00pm 21.8 15.7 0.4 24 10.0 ESE 22 32 12 17 1021.9 1020.8 0.0
27/12:30pm 21.4 15.7 0.6 25 9.7 E 20 32 11 17 1022.3 1021.2 0.0
27/12:00pm 20.1 12.7 -0.5 25 9.3 E 28 37 15 20 1022.8 1021.6 0.0
27/11:30am 19.6 12.7 0.1 27 8.9 E 26 39 14 21 1023.1 1021.9 0.0
27/11:00am 18.0 10.6 -0.8 28 8.3 E 28 39 15 21 1023.6 1022.5 0.0
27/10:30am 17.0 8.8 -1.1 29 7.9 E 32 43 17 23 1023.9 1022.8 0.0
27/10:00am 16.4 8.2 -1.2 30 7.6 E 32 43 17 23 1024.5 1023.3 0.0
27/09:30am 15.5 7.3 -1.1 32 7.1 E 32 43 17 23 1024.4 1023.2 0.0
27/09:07am 15.1 7.2 -1.5 32 7.0 ESE 30 48 16 26 1024.6 1023.5 0.0
27/09:00am 15.7 7.5 -0.9 32 7.1 ESE 32 44 17 24 1024.7 1023.6 0.0
27/08:33am 14.7 6.4 -1.4 33 6.8 ESE 32 46 17 25 1024.2 1023.0 0.0
27/08:30am 14.7 5.9 -1.0 34 6.7 ESE 35 52 19 28 1024.2 1023.0 0.0
27/08:11am 14.0 5.7 -1.6 34 6.5 ESE 32 50 17 27 1023.8 1022.7 0.0
27/08:00am 13.7 5.5 -1.1 36 6.2 ESE 32 44 17 24 1023.7 1022.6 0.0
27/07:30am 13.1 4.6 -1.6 36 6.1 ESE 33 44 18 24 1023.6 1022.5 0.0
27/07:00am 12.7 3.8 -1.6 37 5.9 ESE 35 46 19 25 1023.3 1022.2 0.0
27/06:30am 12.5 3.6 -1.8 37 5.9 ESE 35 44 19 24 1023.3 1022.2 0.0
27/06:00am 12.7 4.7 -2.0 36 6.0 ESE 30 39 16 21 1023.0 1021.8 0.0
27/05:30am 12.9 4.6 -1.8 36 6.1 ESE 32 46 17 25 1022.7 1021.5 0.0
27/05:00am 13.1 5.5 -2.0 35 6.2 ESE 28 37 15 20 1022.6 1021.4 0.0
27/04:30am 13.4 5.4 -2.1 34 6.4 ESE 30 41 16 22 1022.5 1021.3 0.0
27/04:00am 13.5 5.5 -2.4 33 6.5 ESE 30 43 16 23 1022.1 1021.0 0.0
27/03:30am 13.7 5.7 -2.7 32 6.7 ESE 30 44 16 24 1022.3 1021.2 0.0
27/03:00am 13.8 6.5 -2.6 32 6.7 ESE 26 35 14 19 1022.3 1021.2 0.0
27/02:30am 14.0 7.1 -2.8 31 6.9 ESE 24 35 13 19 1022.7 1021.5 0.0
27/02:00am 14.3 6.6 -3.0 30 7.0 ESE 28 43 15 23 1022.7 1021.5 0.0
27/01:30am 14.5 6.4 -3.3 29 7.2 ESE 30 35 16 19 1022.9 1021.7 0.0
27/01:00am 14.6 8.0 -3.2 29 7.2 ESE 22 35 12 19 1023.1 1021.9 0.0
27/12:30am 14.7 7.0 -3.1 29 7.3 ESE 28 39 15 21 1023.2 1022.1 0.0
27/12:00am 14.7 8.5 -3.1 29 7.2 ESE 20 28 11 15 1023.3 1022.2 0.0
 
Date/Time
WST
Temp
°C
App
Temp
°C
Dew
Point
°C
Rel
Hum
%
Delta-T
°C
Wind Press
QNH
hPa
Press
MSL
hPa
Rain since
9am
mm
Dir  Spd
km/h
Gust
km/h
Spd
kts
Gust
kts
26/11:30pm 14.7 8.1 -3.1 29 7.3 SE 22 32 12 17 1023.5 1022.4 0.0
26/11:00pm 14.6 8.4 -3.2 29 7.2 SE 20 28 11 15 1023.6 1022.5 0.0
26/10:30pm 14.4 8.8 -2.9 30 7.1 SE 17 22 9 12 1023.7 1022.6 0.0
26/10:00pm 14.3 9.1 -3.0 30 7.0 SE 15 19 8 10 1023.8 1022.7 0.0
26/09:30pm 14.2 9.4 -2.7 31 6.9 SE 13 15 7 8 1023.8 1022.7 0.0
26/09:00pm 14.7 9.9 -2.7 30 7.1 SE 13 17 7 9 1023.7 1022.6 0.0
26/08:30pm 15.2 10.4 -2.7 29 7.4 SE 13 17 7 9 1023.7 1022.6 0.0
26/08:00pm 15.5 10.3 -2.9 28 7.6 SE 15 20 8 11 1023.4 1022.3 0.0
26/07:30pm 15.5 10.7 -2.9 28 7.6 SE 13 15 7 8 1023.0 1021.8 0.0
26/07:00pm 16.6 11.7 -3.5 25 8.3 SE 13 17 7 9 1022.7 1021.5 0.0
26/06:30pm 17.4 12.1 -3.9 23 8.8 SE 15 20 8 11 1022.2 1021.1 0.0
26/06:00pm 18.3 12.1 -4.4 21 9.3 SE 19 28 10 15 1021.7 1020.5 0.0
26/05:30pm 19.4 12.3 -4.8 19 10.0 SE 24 33 13 18 1021.3 1020.1 0.0
26/05:00pm 20.3 11.9 -5.5 17 10.6 SE 30 41 16 22 1021.0 1019.8 0.0
26/04:30pm 21.3 12.9 -6.3 15 11.3 SE 30 39 16 21 1020.9 1019.7 0.0
26/04:00pm 21.1 12.1 -8.4 13 11.5 SE 32 43 17 23 1020.6 1019.5 0.0
26/03:30pm 21.3 12.1 -8.2 13 11.6 ESE 33 44 18 24 1020.9 1019.7 0.0
26/03:00pm 21.8 13.7 -6.8 14 11.6 SE 28 44 15 24 1021.1 1019.9 0.0
26/02:30pm 21.3 13.6 -6.3 15 11.3 SE 26 39 14 21 1021.3 1020.1 0.0
26/02:00pm 20.4 12.4 -5.4 17 10.6 SE 28 39 15 21 1021.3 1020.1 0.0
26/01:30pm 20.7 12.8 -5.2 17 10.7 SE 28 39 15 21 1021.6 1020.4 0.0
26/01:00pm 20.1 12.3 -4.2 19 10.2 SE 28 39 15 21 1021.9 1020.8 0.0
26/12:30pm 19.2 11.6 -2.4 23 9.3 SE 28 39 15 21 1022.5 1021.3 0.0
26/12:00pm 18.4 11.7 -1.4 26 8.6 ESE 24 32 13 17 1022.6 1021.4 0.0
26/11:30am 18.1 10.6 -1.7 26 8.6 ESE 28 37 15 20 1023.1 1021.9 0.0
26/11:00am 17.4 10.4 -0.8 29 8.0 ESE 26 35 14 19 1023.6 1022.5 0.0
26/10:30am 16.7 9.6 -1.4 29 7.8 SE 26 33 14 18 1024.2 1023.0 0.0
26/10:00am 16.2 8.3 -1.4 30 7.5 ESE 30 43 16 23 1024.2 1023.0 0.0
26/09:30am 16.0 8.5 -1.5 30 7.5 SE 28 35 15 19 1024.3 1023.1 0.0
26/09:00am 15.2 7.3 -1.8 31 7.1 SE 30 37 16 20 1024.3 1023.1 0.2
26/08:30am 14.2 6.6 -1.8 33 6.7 SE 28 37 15 20 1024.0 1022.9 0.2
26/08:00am 14.0 6.9 -1.6 34 6.5 SE 26 35 14 19 1023.6 1022.5 0.2
26/07:30am 13.3 7.3 -1.4 36 6.1 SE 20 32 11 17 1023.2 1022.1 0.2
26/07:00am 13.1 7.1 -1.2 37 6.0 SE 20 26 11 14 1022.9 1021.7 0.2
26/06:30am 12.9 7.0 -0.7 39 5.8 SE 20 24 11 13 1022.7 1021.5 0.2
26/06:00am 13.3 7.6 -0.7 38 5.9 SE 19 22 10 12 1022.5 1021.3 0.2
26/05:30am 13.5 7.8 -0.5 38 6.0 SE 19 24 10 13 1022.5 1021.3 0.2
26/05:00am 13.9 8.1 -0.2 38 6.1 SE 20 24 11 13 1021.9 1020.8 0.2
26/04:30am 14.2 8.4 0.1 38 6.1 SE 20 26 11 14 1021.5 1020.3 0.2
26/04:00am 14.6 9.1 0.5 38 6.2 SE 19 24 10 13 1021.5 1020.3 0.2
26/03:30am 14.6 9.1 0.5 38 6.2 SE 19 24 10 13 1021.7 1020.5 0.2
26/03:00am 15.1 10.0 0.5 37 6.4 SE 17 24 9 13 1021.8 1020.7 0.2
26/02:30am 15.2 10.5 1.0 38 6.4 SE 15 20 8 11 1021.5 1020.3 0.2
26/02:00am 15.7 11.1 1.4 38 6.5 SE 15 19 8 10 1021.9 1020.8 0.2
26/01:30am 15.8 12.1 2.2 40 6.3 SE 11 13 6 7 1022.1 1021.0 0.2
26/01:00am 15.5 12.5 4.3 47 5.4 SSE 9 11 5 6 1022.2 1021.1 0.2
26/12:30am 15.7 13.1 4.4 47 5.5 S 7 9 4 5 1022.3 1021.2 0.2
26/12:00am 15.7 13.1 4.4 47 5.4 S 7 11 4 6 1022.3 1021.2 0.2
 
Date/Time
WST
Temp
°C
App
Temp
°C
Dew
Point
°C
Rel
Hum
%
Delta-T
°C
Wind Press
QNH
hPa
Press
MSL
hPa
Rain since
9am
mm
Dir  Spd
km/h
Gust
km/h
Spd
kts
Gust
kts
25/11:30pm 16.7 13.1 3.1 40 6.4 SE 11 13 6 7 1022.1 1021.0 0.2
25/11:00pm 16.3 13.9 4.4 45 5.8 SE 6 7 3 4 1022.2 1021.1 0.2
25/10:30pm 16.1 13.2 4.8 47 5.5 SSE 9 11 5 6 1022.6 1021.4 0.2
25/10:00pm 15.9 12.2 4.6 47 5.5 S 13 15 7 8 1022.6 1021.4 0.2
25/09:30pm 14.6 12.8 7.2 61 3.8 SSE 6 9 3 5 1022.5 1021.3 0.2
25/09:00pm 15.4 14.1 4.2 47 5.4 CALM 0 0 0 0 1022.0 1020.9 0.2
25/08:30pm 15.6 14.7 6.1 53 4.7 CALM 0 0 0 0 1021.9 1020.8 0.2
25/08:00pm 17.0 14.4 4.0 42 6.3 SSE 7 9 4 5 1021.6 1020.4 0.2
25/07:30pm 17.3 16.0 6.2 48 5.6 SSE 2 6 1 3 1021.3 1020.1 0.2
25/07:00pm 18.0 15.5 3.5 38 7.0 SSE 6 9 3 5 1021.2 1020.0 0.2
25/06:30pm 18.4 15.1 2.7 35 7.5 SSE 9 11 5 6 1020.9 1019.7 0.2
25/06:00pm 18.5 15.2 2.4 34 7.6 SE 9 13 5 7 1020.4 1019.3 0.2
25/05:30pm 18.9 14.8 2.3 33 7.9 SE 13 17 7 9 1020.1 1018.9 0.2
25/05:00pm 19.3 15.2 2.2 32 8.1 SSE 13 15 7 8 1020.2 1019.0 0.2
25/04:30pm 19.4 15.2 1.9 31 8.3 SSE 13 17 7 9 1020.3 1019.1 0.2
25/04:00pm 19.5 16.0 1.5 30 8.4 SE 9 19 5 10 1019.9 1018.7 0.2
25/03:30pm 19.4 14.9 1.9 31 8.3 ESE 15 20 8 11 1019.7 1018.5 0.2
25/03:00pm 19.8 15.7 2.2 31 8.4 SE 13 28 7 15 1019.7 1018.5 0.2
25/02:30pm 19.9 15.7 1.4 29 8.7 SE 13 20 7 11 1019.9 1018.7 0.2
25/02:00pm 19.5 14.6 1.9 31 8.3 SE 17 20 9 11 1020.1 1018.9 0.2
25/01:30pm 18.9 14.3 1.4 31 8.2 ESE 15 19 8 10 1020.4 1019.3 0.2
25/01:00pm 18.9 14.0 2.3 33 7.9 SE 17 24 9 13 1020.8 1019.6 0.2
25/12:30pm 18.9 14.5 2.7 34 7.7 SE 15 22 8 12 1021.3 1020.1 0.2
25/12:00pm 18.5 13.1 2.4 34 7.6 ESE 20 28 11 15 1021.7 1020.5 0.2
25/11:30am 17.9 12.6 1.8 34 7.5 ESE 19 24 10 13 1022.5 1021.3 0.2
25/11:00am 17.2 11.7 2.0 36 7.0 ESE 20 30 11 16 1022.8 1021.6 0.2
25/10:30am 16.6 10.8 2.2 38 6.7 SE 22 28 12 15 1023.2 1022.1 0.0
25/10:00am 16.2 10.3 1.5 37 6.7 ESE 22 30 12 16 1023.6 1022.5 0.0
25/09:30am 15.2 8.5 1.4 39 6.2 ESE 26 33 14 18 1023.4 1022.3 0.0
25/09:00am 14.5 8.1 1.1 40 6.0 ESE 24 33 13 18 1023.3 1022.2 1.6

Other Formats:

Comma delimited format used in spreadsheet applications
http://www.bom.gov.au/fwo/IDW60801/IDW60801.99313.axf

JavaScript Object Notation format (JSON) in row-major order
http://www.bom.gov.au/fwo/IDW60801/IDW60801.99313.json